Terminal Aerodrome Forecast
Issued by NWS

Home | Current Version | Previous Version | Graphics & Text | Print | Product List | Glossary On
Versions: 1 2 3 4 5 6 7 8 9 10 11 12 13 14 15
000
FTUS43 KGRB 191311 AAA
TAFAUW
TAF AMD
KAUW 191311Z 1913/2012 28006KT P6SM OVC007
     FM191400 29005KT P6SM FEW120
     FM191800 27009KT P6SM SCT050 SCT200
     FM200100 25005KT P6SM SKC
     FM200900 00000KT 4SM BR SKC=

USA.gov is the U.S. government's official web portal to all federal, state and local government web resources and services.